Time,TemperatureF,DewpointF,PressureIn,WindDirection,WindDirectionDegrees,WindSpeedMPH,WindSpeedGustMPH,Humidity,HourlyPrecipIn,Conditions,Clouds,dailyrainin,SolarRadiationWatts/m^2,SoftwareType,DateUTC
2013-03-05 00:06:00,73.9,55.7,30.14,ESE,106,1.0,2.0,53,0.00,CLR,,0.00,0.0,WeatherDisplay:10.37,2013-03-04 23:06:00,
2013-03-05 00:16:00,73.9,55.7,30.14,SSE,158,0.0,0.0,53,0.00,CLR,,0.00,0.0,WeatherDisplay:10.37,2013-03-04 23:16:00,
2013-03-05 00:26:00,73.9,55.7,30.14,WNW,292,1.0,2.0,53,0.00,CLR,,0.00,0.0,WeatherDisplay:10.37,2013-03-04 23:26:00,
2013-03-05 00:36:00,73.9,55.7,30.14,NNW,338,1.0,2.0,53,0.00,CLR,,0.00,0.0,WeatherDisplay:10.37,2013-03-04 23:36:00,
2013-03-05 00:46:00,73.9,55.7,30.14,North,6,1.0,3.0,53,0.00,CLR,,0.00,0.0,WeatherDisplay:10.37,2013-03-04 23:46:00,
2013-03-05 00:56:00,73.9,55.7,30.14,North,3,1.0,2.0,53,0.00,CLR,,0.00,0.0,WeatherDisplay:10.37,2013-03-04 23:56:00,
2013-03-05 01:06:00,73.9,55.7,30.14,NNW,332,1.0,3.0,53,0.00,CLR,,0.00,0.0,WeatherDisplay:10.37,2013-03-05 00:06:00,
2013-03-05 01:16:00,73.9,55.7,30.14,NNW,328,0.0,2.0,53,0.00,CLR,,0.00,0.0,WeatherDisplay:10.37,2013-03-05 00:16:00,
2013-03-05 01:26:00,73.9,55.7,30.14,North,358,2.0,3.0,53,0.00,CLR,,0.00,0.0,WeatherDisplay:10.37,2013-03-05 00:26:00,
2013-03-05 01:36:00,73.9,55.7,30.14,NNE,17,3.0,4.0,53,0.00,CLR,,0.00,0.0,WeatherDisplay:10.37,2013-03-05 00:36:00,
2013-03-05 01:46:00,73.9,55.7,30.14,NNE,18,2.0,4.0,53,0.00,CLR,,0.00,0.0,WeatherDisplay:10.37,2013-03-05 00:46:00,
2013-03-05 01:56:00,73.9,55.7,30.14,North,354,2.0,3.0,53,0.00,CLR,,0.00,0.0,WeatherDisplay:10.37,2013-03-05 00:56:00,
2013-03-05 02:06:00,73.9,55.7,30.14,NNE,18,2.0,3.0,53,0.00,CLR,,0.00,0.0,WeatherDisplay:10.37,2013-03-05 01:06:00,
2013-03-05 02:16:00,73.9,55.7,30.14,NNE,21,3.0,5.0,53,0.00,CLR,,0.00,0.0,WeatherDisplay:10.37,2013-03-05 01:16:00,
2013-03-05 02:26:00,73.9,55.7,30.14,NNE,26,3.0,5.0,53,0.00,CLR,,0.00,0.0,WeatherDisplay:10.37,2013-03-05 01:26:00,
2013-03-05 02:36:00,73.9,55.7,30.14,NNE,12,2.0,4.0,53,0.00,CLR,,0.00,0.0,WeatherDisplay:10.37,2013-03-05 01:36:00,
2013-03-05 02:46:00,73.9,55.7,30.14,North,2,0.0,3.0,53,0.00,CLR,,0.00,0.0,WeatherDisplay:10.37,2013-03-05 01:46:00,
2013-03-05 02:56:00,73.9,55.7,30.14,NNE,24,3.0,5.0,53,0.00,CLR,,0.00,0.0,WeatherDisplay:10.37,2013-03-05 01:56:00,
2013-03-05 03:06:00,73.9,55.7,30.14,NNE,26,3.0,5.0,53,0.00,CLR,,0.00,0.0,WeatherDisplay:10.37,2013-03-05 02:06:00,
2013-03-05 03:16:00,73.9,55.7,30.14,NNE,30,3.0,5.0,53,0.00,CLR,,0.00,0.0,WeatherDisplay:10.37,2013-03-05 02:16:00,
2013-03-05 03:26:00,73.9,55.7,30.14,NNE,28,3.0,5.0,53,0.00,CLR,,0.00,0.0,WeatherDisplay:10.37,2013-03-05 02:26:00,
2013-03-05 03:36:00,73.9,55.7,30.14,NNE,28,5.0,6.0,53,0.00,CLR,,0.00,0.0,WeatherDisplay:10.37,2013-03-05 02:36:00,
2013-03-05 03:46:00,73.9,55.7,30.14,NE,36,5.0,5.0,53,0.00,CLR,,0.00,0.0,WeatherDisplay:10.37,2013-03-05 02:46:00,
2013-03-05 03:56:00,73.9,55.7,30.14,NE,45,5.0,6.0,53,0.00,CLR,,0.00,0.0,WeatherDisplay:10.37,2013-03-05 02:56:00,
2013-03-05 04:06:00,73.9,55.7,30.14,ENE,60,2.0,3.0,53,0.00,CLR,,0.00,0.0,WeatherDisplay:10.37,2013-03-05 03:06:00,
2013-03-05 04:16:00,73.9,55.7,30.14,ENE,68,0.0,2.0,53,0.00,CLR,,0.00,0.0,WeatherDisplay:10.37,2013-03-05 03:16:00,
2013-03-05 04:26:00,73.9,55.7,30.14,NNE,31,3.0,4.0,53,0.00,CLR,,0.00,0.0,WeatherDisplay:10.37,2013-03-05 03:26:00,
2013-03-05 04:36:00,73.9,55.7,30.14,NNE,30,3.0,4.0,53,0.00,CLR,,0.00,0.0,WeatherDisplay:10.37,2013-03-05 03:36:00,
2013-03-05 04:46:00,73.9,55.7,30.14,NNE,29,5.0,6.0,53,0.00,CLR,,0.00,0.0,WeatherDisplay:10.37,2013-03-05 03:46:00,
2013-03-05 04:56:00,73.9,55.7,30.14,NNE,28,1.0,3.0,53,0.00,CLR,,0.00,0.0,WeatherDisplay:10.37,2013-03-05 03:56:00,
2013-03-05 05:06:00,73.9,55.7,30.14,NE,50,3.0,3.0,53,0.00,CLR,,0.00,0.0,WeatherDisplay:10.37,2013-03-05 04:06:00,
2013-03-05 05:16:00,73.9,55.7,30.14,NE,45,5.0,6.0,53,0.00,CLR,,0.00,0.0,WeatherDisplay:10.37,2013-03-05 04:16:00,
2013-03-05 05:26:00,73.9,55.7,30.14,NE,37,2.0,5.0,53,0.00,CLR,,0.00,0.0,WeatherDisplay:10.37,2013-03-05 04:26:00,
2013-03-05 05:36:00,73.9,55.7,30.14,NE,40,5.0,5.0,53,0.00,CLR,,0.00,0.0,WeatherDisplay:10.37,2013-03-05 04:36:00,
2013-03-05 05:46:00,73.9,55.7,30.14,NE,44,3.0,4.0,53,0.00,CLR,,0.00,0.0,WeatherDisplay:10.37,2013-03-05 04:46:00,
2013-03-05 05:56:00,73.9,55.7,30.14,NE,53,2.0,3.0,53,0.00,CLR,,0.00,0.0,WeatherDisplay:10.37,2013-03-05 04:56:00,
2013-03-05 06:06:00,73.9,55.7,30.14,ENE,77,1.0,2.0,53,0.00,CLR,,0.00,0.0,WeatherDisplay:10.37,2013-03-05 05:06:00,
2013-03-05 06:16:00,73.9,55.7,30.14,East,96,2.0,3.0,53,0.00,CLR,,0.00,0.0,WeatherDisplay:10.37,2013-03-05 05:16:00,
2013-03-05 06:26:00,73.9,55.7,30.11,East,94,2.0,3.0,53,0.00,CLR,,0.00,0.0,WeatherDisplay:10.37,2013-03-05 05:26:00,
2013-03-05 06:36:00,73.9,55.7,30.11,ESE,104,2.0,3.0,53,0.00,CLR,,0.00,0.0,WeatherDisplay:10.37,2013-03-05 05:36:00,
2013-03-05 06:46:00,73.9,55.7,30.11,East,90,2.0,3.0,53,0.00,CLR,,0.00,0.0,WeatherDisplay:10.37,2013-03-05 05:46:00,
2013-03-05 06:56:00,73.9,55.7,30.11,ENE,69,2.0,4.0,53,0.00,CLR,,0.00,0.0,WeatherDisplay:10.37,2013-03-05 05:56:00,
2013-03-05 07:06:00,73.9,55.7,30.11,NE,44,3.0,5.0,53,0.00,CLR,,0.00,0.0,WeatherDisplay:10.37,2013-03-05 06:06:00,
2013-03-05 07:16:00,73.9,55.7,30.11,NE,36,5.0,5.0,53,0.00,CLR,,0.00,0.0,WeatherDisplay:10.37,2013-03-05 06:16:00,
2013-03-05 07:26:00,73.9,55.7,30.11,NE,41,1.0,4.0,53,0.00,CLR,,0.00,0.0,WeatherDisplay:10.37,2013-03-05 06:26:00,
2013-03-05 07:36:00,73.9,55.7,30.11,NE,49,2.0,4.0,53,0.00,CLR,,0.00,0.0,WeatherDisplay:10.37,2013-03-05 06:36:00,
2013-03-05 07:46:00,73.9,55.7,30.11,South,171,1.0,4.0,53,0.00,CLR,,0.00,0.0,WeatherDisplay:10.37,2013-03-05 06:46:00,
2013-03-05 07:56:00,73.9,55.7,30.11,SW,216,1.0,2.0,53,0.00,CLR,,0.00,0.0,WeatherDisplay:10.37,2013-03-05 06:56:00,
2013-03-05 08:06:00,73.9,55.7,30.14,NE,48,0.0,3.0,53,0.00,BKN,,0.00,0.0,WeatherDisplay:10.37,2013-03-05 07:06:00,
2013-03-05 08:16:00,73.9,55.7,30.14,ENE,67,1.0,2.0,53,0.00,BKN,,0.00,0.0,WeatherDisplay:10.37,2013-03-05 07:16:00,
2013-03-05 08:26:00,73.9,55.7,30.14,ENE,57,2.0,3.0,53,0.00,BKN,,0.00,0.0,WeatherDisplay:10.37,2013-03-05 07:26:00,
2013-03-05 08:36:00,73.9,55.7,30.14,ENE,61,0.0,1.0,53,0.00,BKN,,0.00,0.0,WeatherDisplay:10.37,2013-03-05 07:36:00,
2013-03-05 08:46:00,73.9,55.7,30.14,SSE,168,3.0,3.0,53,0.00,BKN,,0.00,0.0,WeatherDisplay:10.37,2013-03-05 07:46:00,
2013-03-05 08:56:00,73.9,55.7,30.14,SSE,167,0.0,1.0,53,0.00,BKN,,0.00,0.0,WeatherDisplay:10.37,2013-03-05 07:56:00,
2013-03-05 09:06:00,73.9,55.7,30.17,SW,235,1.0,2.0,53,0.00,BKN,,0.00,0.0,WeatherDisplay:10.37,2013-03-05 08:06:00,
2013-03-05 09:16:00,73.9,55.7,30.17,WSW,248,2.0,3.0,53,0.00,BKN,,0.00,0.0,WeatherDisplay:10.37,2013-03-05 08:16:00,
2013-03-05 09:26:00,73.9,55.7,30.17,NW,304,1.0,3.0,53,0.00,BKN,,0.00,0.0,WeatherDisplay:10.37,2013-03-05 08:26:00,
2013-03-05 09:36:00,73.9,55.7,30.17,NNE,21,0.0,0.0,53,0.00,BKN,,0.00,0.0,WeatherDisplay:10.37,2013-03-05 08:36:00,
2013-03-05 09:46:00,73.9,55.7,30.17,SW,231,1.0,3.0,53,0.00,BKN,,0.00,0.0,WeatherDisplay:10.37,2013-03-05 08:46:00,
2013-03-05 09:56:00,73.9,55.7,30.17,WSW,238,2.0,4.0,53,0.00,BKN,,0.00,0.0,WeatherDisplay:10.37,2013-03-05 08:56:00,
2013-03-05 10:06:00,73.9,55.7,30.19,North,357,2.0,5.0,53,0.00,BKN,,0.00,0.0,WeatherDisplay:10.37,2013-03-05 09:06:00,
2013-03-05 10:16:00,73.9,55.7,30.19,North,350,2.0,5.0,53,0.00,BKN,,0.00,0.0,WeatherDisplay:10.37,2013-03-05 09:16:00,
2013-03-05 10:26:00,73.9,55.7,30.19,NNW,347,5.0,6.0,53,0.00,BKN,,0.00,0.0,WeatherDisplay:10.37,2013-03-05 09:26:00,
2013-03-05 10:36:00,73.9,55.7,30.19,NNW,342,3.0,6.0,53,0.00,BKN,,0.00,0.0,WeatherDisplay:10.37,2013-03-05 09:36:00,
2013-03-05 10:46:00,73.9,55.7,30.19,NNW,348,3.0,6.0,53,0.00,BKN,,0.00,0.0,WeatherDisplay:10.37,2013-03-05 09:46:00,
2013-03-05 10:56:00,73.9,55.7,30.19,North,357,2.0,6.0,53,0.00,BKN,,0.00,0.0,WeatherDisplay:10.37,2013-03-05 09:56:00,
2013-03-05 11:06:00,73.9,55.7,30.17,North,357,6.0,7.0,53,0.00,BKN,,0.00,0.0,WeatherDisplay:10.37,2013-03-05 10:06:00,
2013-03-05 11:16:00,73.9,55.7,30.17,NW,326,3.0,8.0,53,0.00,BKN,,0.00,0.0,WeatherDisplay:10.37,2013-03-05 10:16:00,
2013-03-05 11:26:00,73.9,55.7,30.17,NNW,340,3.0,6.0,53,0.00,BKN,,0.00,0.0,WeatherDisplay:10.37,2013-03-05 10:26:00,
2013-03-05 11:36:00,73.9,55.7,30.17,NNW,346,3.0,6.0,53,0.00,BKN,,0.00,0.0,WeatherDisplay:10.37,2013-03-05 10:36:00,
2013-03-05 11:46:00,73.9,55.7,30.17,NNW,344,3.0,6.0,53,0.00,BKN,,0.00,0.0,WeatherDisplay:10.37,2013-03-05 10:46:00,
2013-03-05 11:56:00,73.9,55.7,30.19,WNW,282,5.0,6.0,53,0.00,BKN,,0.00,0.0,WeatherDisplay:10.37,2013-03-05 10:56:00,
2013-03-05 12:06:00,73.9,55.7,30.19,WSW,246,6.0,9.0,53,0.00,OVC,,0.00,0.0,WeatherDisplay:10.37,2013-03-05 11:06:00,
2013-03-05 12:16:00,73.9,55.7,30.19,WSW,237,6.0,10.0,53,0.00,OVC,,0.00,0.0,WeatherDisplay:10.37,2013-03-05 11:16:00,
2013-03-05 12:26:00,73.9,55.7,30.19,SW,219,2.0,8.0,53,0.00,OVC,,0.00,0.0,WeatherDisplay:10.37,2013-03-05 11:26:00,
2013-03-05 12:36:00,73.9,55.7,30.19,SSW,200,3.0,7.0,53,0.00,OVC,,0.00,0.0,WeatherDisplay:10.37,2013-03-05 11:36:00,
2013-03-05 12:46:00,73.9,55.7,30.19,South,183,3.0,6.0,53,0.00,OVC,,0.00,0.0,WeatherDisplay:10.37,2013-03-05 11:46:00,
2013-03-05 12:56:00,73.9,55.7,30.19,SW,220,3.0,7.0,53,0.00,OVC,,0.00,0.0,WeatherDisplay:10.37,2013-03-05 11:56:00,
2013-03-05 13:06:00,73.9,55.7,30.19,SSW,199,5.0,7.0,53,0.00,BKN,,0.00,0.0,WeatherDisplay:10.37,2013-03-05 12:06:00,
2013-03-05 13:16:00,73.9,55.7,30.19,SSW,204,2.0,6.0,53,0.00,BKN,,0.00,0.0,WeatherDisplay:10.37,2013-03-05 12:16:00,
2013-03-05 13:26:00,73.9,55.7,30.19,SW,214,3.0,6.0,53,0.00,BKN,,0.00,0.0,WeatherDisplay:10.37,2013-03-05 12:26:00,
2013-03-05 13:36:00,73.9,55.7,30.19,SSW,205,3.0,6.0,53,0.00,BKN,,0.00,0.0,WeatherDisplay:10.37,2013-03-05 12:36:00,
2013-03-05 13:46:00,73.9,55.7,30.19,ESE,118,1.0,7.0,53,0.00,BKN,,0.00,0.0,WeatherDisplay:10.37,2013-03-05 12:46:00,
2013-03-05 13:56:00,73.9,55.7,30.17,SSE,158,1.0,6.0,53,0.00,BKN,,0.00,0.0,WeatherDisplay:10.37,2013-03-05 12:56:00,
2013-03-05 14:06:00,73.9,55.7,30.17,South,177,3.0,5.0,53,0.00,BKN,,0.00,0.0,WeatherDisplay:10.37,2013-03-05 13:06:00,
2013-03-05 14:16:00,73.9,55.7,30.17,SE,144,0.0,5.0,53,0.00,BKN,,0.00,0.0,WeatherDisplay:10.37,2013-03-05 13:16:00,
2013-03-05 14:26:00,73.9,55.7,30.17,South,174,0.0,5.0,53,0.00,BKN,,0.00,0.0,WeatherDisplay:10.37,2013-03-05 13:26:00,
2013-03-05 14:36:00,73.9,55.7,30.17,South,185,1.0,3.0,53,0.00,BKN,,0.00,0.0,WeatherDisplay:10.37,2013-03-05 13:36:00,
2013-03-05 14:46:00,73.9,55.7,30.17,South,182,3.0,6.0,53,0.00,BKN,,0.00,0.0,WeatherDisplay:10.37,2013-03-05 13:46:00,
2013-03-05 14:56:00,73.9,55.7,30.17,South,172,1.0,4.0,53,0.00,BKN,,0.00,0.0,WeatherDisplay:10.37,2013-03-05 13:56:00,
2013-03-05 15:06:00,73.9,55.7,30.17,South,188,1.0,3.0,53,0.00,BKN,,0.00,0.0,WeatherDisplay:10.37,2013-03-05 14:06:00,
2013-03-05 15:16:00,73.9,55.7,30.17,SE,144,3.0,6.0,53,0.00,BKN,,0.00,0.0,WeatherDisplay:10.37,2013-03-05 14:16:00,
2013-03-05 15:26:00,73.9,55.7,30.14,ESE,118,2.0,5.0,53,0.00,BKN,,0.00,0.0,WeatherDisplay:10.37,2013-03-05 14:26:00,
2013-03-05 15:36:00,73.9,55.7,30.14,ESE,120,1.0,5.0,53,0.00,BKN,,0.00,0.0,WeatherDisplay:10.37,2013-03-05 14:36:00,
2013-03-05 15:46:00,73.9,55.7,30.14,East,96,2.0,4.0,53,0.00,BKN,,0.00,0.0,WeatherDisplay:10.37,2013-03-05 14:46:00,
2013-03-05 15:56:00,73.9,55.7,30.11,ENE,66,2.0,3.0,53,0.00,BKN,,0.00,0.0,WeatherDisplay:10.37,2013-03-05 14:56:00,
2013-03-05 16:26:00,73.9,55.7,30.14,West,281,2.0,4.0,53,0.00,BKN,,0.00,0.0,WeatherDisplay:10.37,2013-03-05 15:26:00,
2013-03-05 16:36:00,73.9,55.7,30.11,SW,226,3.0,6.0,53,0.00,BKN,,0.00,0.0,WeatherDisplay:10.37,2013-03-05 15:36:00,
2013-03-05 16:46:00,73.9,55.7,30.11,WSW,239,2.0,5.0,53,0.00,BKN,,0.00,0.0,WeatherDisplay:10.37,2013-03-05 15:46:00,
2013-03-05 16:56:00,73.9,55.7,30.11,WNW,283,2.0,4.0,53,0.00,BKN,,0.00,0.0,WeatherDisplay:10.37,2013-03-05 15:56:00,
2013-03-05 17:06:00,73.9,55.7,30.11,WSW,240,0.0,3.0,53,0.00,BKN,,0.00,0.0,WeatherDisplay:10.37,2013-03-05 16:06:00,
2013-03-05 17:16:00,73.9,55.7,30.11,ESE,102,0.0,3.0,53,0.00,BKN,,0.00,0.0,WeatherDisplay:10.37,2013-03-05 16:16:00,
2013-03-05 17:26:00,73.9,55.7,30.11,ESE,105,1.0,4.0,53,0.00,BKN,,0.00,0.0,WeatherDisplay:10.37,2013-03-05 16:26:00,
2013-03-05 17:36:00,73.9,55.7,30.08,SSE,150,2.0,5.0,53,0.00,BKN,,0.00,0.0,WeatherDisplay:10.37,2013-03-05 16:36:00,
2013-03-05 17:46:00,73.9,55.7,30.08,East,90,1.0,5.0,53,0.00,BKN,,0.00,0.0,WeatherDisplay:10.37,2013-03-05 16:46:00,
2013-03-05 17:56:00,73.9,55.7,30.08,NNE,19,5.0,7.0,53,0.00,BKN,,0.00,0.0,WeatherDisplay:10.37,2013-03-05 16:56:00,
2013-03-05 18:06:00,73.9,55.7,30.08,NNE,23,5.0,8.0,53,0.00,BKN,,0.00,0.0,WeatherDisplay:10.37,2013-03-05 17:06:00,
2013-03-05 18:16:00,73.9,55.7,30.08,North,355,7.0,9.0,53,0.00,BKN,,0.00,0.0,WeatherDisplay:10.37,2013-03-05 17:16:00,
2013-03-05 18:26:00,73.9,55.7,30.08,North,10,6.0,9.0,53,0.00,BKN,,0.00,0.0,WeatherDisplay:10.37,2013-03-05 17:26:00,
2013-03-05 18:36:00,73.9,55.7,30.08,North,358,6.0,8.0,53,0.00,BKN,,0.00,0.0,WeatherDisplay:10.37,2013-03-05 17:36:00,
2013-03-05 18:46:00,73.9,55.7,30.08,North,2,2.0,5.0,53,0.00,BKN,,0.00,0.0,WeatherDisplay:10.37,2013-03-05 17:46:00,
2013-03-05 18:56:00,73.9,55.7,30.08,North,0,2.0,6.0,53,0.00,BKN,,0.00,0.0,WeatherDisplay:10.37,2013-03-05 17:56:00,
2013-03-05 19:06:00,73.9,55.7,30.08,North,2,6.0,8.0,53,0.00,-RA,,0.00,0.0,WeatherDisplay:10.37,2013-03-05 18:06:00,
2013-03-05 19:16:00,73.9,55.7,30.08,North,353,3.0,6.0,53,0.00,-RA,,0.00,0.0,WeatherDisplay:10.37,2013-03-05 18:16:00,
2013-03-05 19:26:00,73.9,55.7,30.05,NNE,22,3.0,6.0,53,0.00,-RA,,0.00,0.0,WeatherDisplay:10.37,2013-03-05 18:26:00,
2013-03-05 19:36:00,73.9,55.7,30.05,NNE,17,5.0,6.0,53,0.00,-RA,,0.00,0.0,WeatherDisplay:10.37,2013-03-05 18:36:00,
2013-03-05 19:46:00,73.9,55.7,30.05,NNE,23,5.0,7.0,53,0.00,-RA,,0.00,0.0,WeatherDisplay:10.37,2013-03-05 18:46:00,
2013-03-05 19:56:00,73.9,55.7,30.02,West,276,6.0,10.0,53,0.00,-RA,,0.00,0.0,WeatherDisplay:10.37,2013-03-05 18:56:00,
2013-03-05 20:06:00,73.9,55.7,30.02,West,267,5.0,6.0,53,0.00,-RA,,0.00,0.0,WeatherDisplay:10.37,2013-03-05 19:06:00,
2013-03-05 20:16:00,73.9,55.7,30.02,WSW,247,1.0,10.0,53,0.00,-RA,,0.00,0.0,WeatherDisplay:10.37,2013-03-05 19:16:00,
2013-03-05 20:26:00,73.9,55.7,30.02,West,279,2.0,7.0,53,0.00,-RA,,0.00,0.0,WeatherDisplay:10.37,2013-03-05 19:26:00,
2013-03-05 20:36:00,73.9,55.7,30.02,NW,309,3.0,7.0,53,0.00,-RA,,0.00,0.0,WeatherDisplay:10.37,2013-03-05 19:36:00,
2013-03-05 20:46:00,73.9,55.7,30.02,North,1,2.0,5.0,53,0.00,-RA,,0.00,0.0,WeatherDisplay:10.37,2013-03-05 19:46:00,
2013-03-05 20:56:00,73.9,55.7,30.02,NNW,331,5.0,6.0,53,0.00,-RA,,0.00,0.0,WeatherDisplay:10.37,2013-03-05 19:56:00,
2013-03-05 21:06:00,73.9,55.7,30.05,NNW,335,5.0,6.0,53,0.00,BKN,,0.00,0.0,WeatherDisplay:10.37,2013-03-05 20:06:00,
2013-03-05 21:16:00,73.9,55.7,30.05,NW,325,2.0,5.0,53,0.00,BKN,,0.00,0.0,WeatherDisplay:10.37,2013-03-05 20:16:00,
2013-03-05 21:26:00,73.9,55.7,30.02,NNE,20,2.0,4.0,53,0.00,BKN,,0.00,0.0,WeatherDisplay:10.37,2013-03-05 20:26:00,
2013-03-05 21:36:00,73.9,55.7,30.05,North,8,3.0,6.0,53,0.00,BKN,,0.00,0.0,WeatherDisplay:10.37,2013-03-05 20:36:00,
2013-03-05 21:46:00,73.9,55.7,30.05,NNE,28,3.0,6.0,53,0.00,BKN,,0.00,0.0,WeatherDisplay:10.37,2013-03-05 20:46:00,
2013-03-05 21:56:00,73.9,55.7,30.02,NNE,26,3.0,6.0,53,0.00,BKN,,0.00,0.0,WeatherDisplay:10.37,2013-03-05 20:56:00,
2013-03-05 22:06:00,73.9,55.7,30.02,NNE,15,3.0,5.0,53,0.00,BKN,,0.00,0.0,WeatherDisplay:10.37,2013-03-05 21:06:00,
2013-03-05 22:16:00,73.9,55.7,30.02,North,9,3.0,6.0,53,0.00,BKN,,0.00,0.0,WeatherDisplay:10.37,2013-03-05 21:16:00,
2013-03-05 22:36:00,73.9,55.7,30.05,NNE,16,3.0,6.0,53,0.00,BKN,,0.00,0.0,WeatherDisplay:10.37,2013-03-05 21:36:00,
2013-03-05 22:46:00,73.9,55.7,30.05,NNE,22,3.0,6.0,53,0.00,BKN,,0.00,0.0,WeatherDisplay:10.37,2013-03-05 21:46:00,
2013-03-05 22:56:00,73.9,55.7,30.05,NNE,23,3.0,6.0,53,0.00,BKN,,0.00,0.0,WeatherDisplay:10.37,2013-03-05 21:56:00,
2013-03-05 23:06:00,73.9,55.7,30.05,NNE,22,5.0,6.0,53,0.00,BKN,,0.00,0.0,WeatherDisplay:10.37,2013-03-05 22:06:00,
2013-03-05 23:16:00,73.9,55.7,30.05,NNE,23,5.0,6.0,53,0.00,BKN,,0.00,0.0,WeatherDisplay:10.37,2013-03-05 22:16:00,
2013-03-05 23:26:00,73.9,55.7,30.05,NNE,23,3.0,6.0,53,0.00,BKN,,0.00,0.0,WeatherDisplay:10.37,2013-03-05 22:26:00,
2013-03-05 23:36:00,73.9,55.7,30.05,NNE,25,5.0,7.0,53,0.00,BKN,,0.00,0.0,WeatherDisplay:10.37,2013-03-05 22:36:00,
2013-03-05 23:46:00,73.9,55.7,30.05,NNE,29,7.0,8.0,53,0.00,BKN,,0.00,0.0,WeatherDisplay:10.37,2013-03-05 22:46:00,
2013-03-05 23:56:00,73.9,55.7,30.02,NNE,23,6.0,9.0,53,0.00,BKN,,0.00,0.0,WeatherDisplay:10.37,2013-03-05 22:56:00,